Αναφορές METAR Αεροδρομίων

 

LGTS - THESSALONIKI - GREECE
Ενημερώθηκε: 27/01/2021 23:50
Αραιές Νεφώσεις
Αραιές Νεφώσεις
 Ανεμος από ΒΒΔ
Ανεμος: ΒΒΔ 39 km/h, Ριπή: 59 km/h
Θερμοκρασία: 4°C
Δείκτη Ψύχρας: -2°C
Σημείο Δρόσου: -4°C
Υγρασία: 56%
Βαρόμετρο: 1012 hPa
Clouds: Αραιές Νεφώσεις
Visibility: 10 km
Cloud details: Αραιές Νεφώσεις 914 m
2021/01/27 21:50 LGTS 272150Z 33021G32KT 9999 FEW030 04/M04 Q1012 NOSIG
LGLR - LARTISA - GREECE
Ενημερώθηκε: 26/01/2021 21:50
NOT Current
Σχεδόν νεφελώδης
Σχεδόν νεφελώδης
 Ανεμος από ΒΔ
Ανεμος: ΒΔ 19 km/h
Θερμοκρασία: 6°C
Δείκτη Ψύχρας: 3°C
Σημείο Δρόσου: 4°C
Υγρασία: 87%
Βαρόμετρο: 1001 hPa
Clouds: Σχεδόν νεφελώδης
Visibility: 10 km
Cloud details: Αραιές Νεφώσεις 305 m
Μερικώς νεφελώδης 914 m
Σχεδόν νεφελώδης 2438 m
2021/01/26 19:50 LGLR 261950Z 32010KT 9999 FEW010 SCT030 BKN080 06/04 Q1001 BLU
 
LGKZ - KOZANI - GREECE
Ενημερώθηκε: 28/01/2021 00:20

 Ανεμος από ΒΒΔ
Ανεμος: ΒΒΔ 11 km/h
Θερμοκρασία: -3°C
Δείκτη Ψύχρας: -7°C
Σημείο Δρόσου: -10°C
Υγρασία: 59%
Βαρόμετρο: 1011 hPa
2021/01/27 22:20 LGKZ 272220Z AUTO 34006KT 290V360 //// // ////// M03/M10 Q1011 RE//
LGKV - KAVALA - GREECE
Ενημερώθηκε: 27/01/2021 19:50
NOT Current
Σχεδόν νεφελώδης
Σχεδόν νεφελώδης
 Ανεμος από ΑΒΑ
Ανεμος: ΑΒΑ 7 km/h
Θερμοκρασία: 5°C
Δείκτη Ψύχρας: 3°C
Σημείο Δρόσου: 0°C
Υγρασία: 70%
Βαρόμετρο: 1007 hPa
Clouds: Σχεδόν νεφελώδης
Visibility: 10 km
Cloud details: Αραιές Νεφώσεις 914 m
Σχεδόν νεφελώδης 2438 m
2021/01/27 17:50 LGKV 271750Z 06004KT 9999 FEW030 BKN080 05/00 Q1007
 
LGIO - IOANNINA - GREECE
Ενημερώθηκε: 28/01/2021 00:20

 Ανεμος από varies
Ανεμος: varies 4 km/h
Θερμοκρασία: -1°C
Σημείο Δρόσου: -6°C
Υγρασία: 69%
Βαρόμετρο: 1012 hPa
2021/01/27 22:20 LGIO 272220Z AUTO VRB02KT //// // ////// M01/M06 Q1012 RE//
LGBL - BOLOS - GREECE
Ενημερώθηκε: 27/01/2021 23:50
Αραιές Νεφώσεις
Αραιές Νεφώσεις
 Ανεμος από Δ
Ανεμος: Δ 9 km/h
Θερμοκρασία: 0°C
Δείκτη Ψύχρας: -3°C
Σημείο Δρόσου: -5°C
Υγρασία: 69%
Βαρόμετρο: 1012 hPa
Clouds: Αραιές Νεφώσεις
Visibility: 10 km
Cloud details: Αραιές Νεφώσεις 914 m
2021/01/27 21:50 LGBL 272150Z 28005KT 9999 FEW030 00/M05 Q1012
 
LGMT - MITILINI - GREECE
Ενημερώθηκε: 27/01/2021 22:50
NOT Current
Μερικώς νεφελώδης
Μερικώς νεφελώδης
 Ανεμος από ΒΒΑ
Ανεμος: ΒΒΑ 15 km/h
Θερμοκρασία: 5°C
Δείκτη Ψύχρας: 2°C
Σημείο Δρόσου: 1°C
Υγρασία: 76%
Βαρόμετρο: 1008 hPa
Clouds: Μερικώς νεφελώδης
Visibility: 10 km
Cloud details: Μερικώς νεφελώδης 610 m
2021/01/27 20:50 LGMT 272050Z 02008KT 9999 SCT020 05/01 Q1008
LGAV - ATHENS - GREECE
Ενημερώθηκε: 28/01/2021 00:20
Αίθριος
Αίθριος
 Ανεμος από varies
Ανεμος: varies 2 km/h
Θερμοκρασία: 5°C
Σημείο Δρόσου: -8°C
Υγρασία: 39%
Βαρόμετρο: 1012 hPa
Περίληψη: Αίθριος
Visibility: greater than 10 km
2021/01/27 22:20 LGAV 272220Z VRB01KT CAVOK 05/M08 Q1012 NOSIG
 
LGRP - RODOS - GREECE
Ενημερώθηκε: 28/01/2021 00:20
Σχεδόν νεφελώδης
Σχεδόν νεφελώδης
 Ανεμος από Δ
Ανεμος: Δ 28 km/h, Ριπή: 48 km/h
Θερμοκρασία: 8°C
Δείκτη Ψύχρας: 4°C
Σημείο Δρόσου: 4°C
Υγρασία: 76%
Βαρόμετρο: 1009 hPa
Clouds: Σχεδόν νεφελώδης
Visibility: 10 km
Cloud details: Αραιές Νεφώσεις 457 m
Αραιές Νεφώσεις 549 m
Σχεδόν νεφελώδης 610 m
2021/01/27 22:20 LGRP 272220Z 27015G26KT 9999 FEW015TCU FEW018CB BKN020 08/04 Q1009 NOSIG
LGIR - HRAKLIO/KRITI - GREECE
Ενημερώθηκε: 28/01/2021 00:20
Μερικώς νεφελώδης
Μερικώς νεφελώδης
 Ανεμος από ΔΝΔ
Ανεμος: ΔΝΔ 19 km/h
Θερμοκρασία: 9°C
Δείκτη Ψύχρας: 6°C
Σημείο Δρόσου: 3°C
Υγρασία: 66%
Βαρόμετρο: 1012 hPa
Clouds: Μερικώς νεφελώδης
Visibility: 10 km
Cloud details: Αραιές Νεφώσεις 762 m
Μερικώς νεφελώδης 914 m
2021/01/27 22:20 LGIR 272220Z 24010KT 9999 FEW025 SCT030 09/03 Q1012 NOSIG
 
LGMK - MIKONOS - GREECE
Ενημερώθηκε: 27/01/2021 19:50
NOT Current
Μερικώς νεφελώδης
Μερικώς νεφελώδης
 Ανεμος από ΒΒΔ
Ανεμος: ΒΒΔ 13 km/h, Ριπή: 31 km/h
Θερμοκρασία: 6°C
Δείκτη Ψύχρας: 3°C
Σημείο Δρόσου: 0°C
Υγρασία: 66%
Βαρόμετρο: 1008 hPa
Clouds: Μερικώς νεφελώδης
Visibility: 10 km
Cloud details: Μερικώς νεφελώδης 305 m
2021/01/27 17:50 LGMK 271750Z 33007G17KT 9999 SCT010 06/00 Q1008
LGKR - KERKIRA - GREECE
Ενημερώθηκε: 27/01/2021 22:50
NOT Current
Αραιές Νεφώσεις
Αραιές Νεφώσεις
 Ανεμος από ΝΝΔ
Ανεμος: ΝΝΔ 6 km/h
Θερμοκρασία: 5°C
Σημείο Δρόσου: 1°C
Υγρασία: 76%
Βαρόμετρο: 1013 hPa
Clouds: Αραιές Νεφώσεις
Visibility: 10 km
Cloud details: Αραιές Νεφώσεις 762 m
2021/01/27 20:50 LGKR 272050Z 21003KT 9999 FEW025 05/01 Q1013 NOSIG